CheckWX is a tool to help pilots better visualize weather data.  It is not intended as a substitute for an official pre-flight weather briefing.

19:16:10 UTC

CYXC METAR
Cranbrook Airport
Cranbrook, Canada
Current

1 hour ago

CYXC 261800Z 03008KT 340V060 25SM FEW062 BKN086 15/01 A3004 RMK SC2AC5 SLP177 DENSITY ALT 3700FT
Observed
May-26 @ 18:00 UTC
Wind
  • 030° at 8 KTS
Visibility
25 SM
Flight Rules
VFR
Cloud Levels
  • Few at 6,200' AGL
  • Broken at 8,600' AGL
Temperature
15°C / 59°F
Dewpoint
C / 34°F
Humidity
39%
Altimeter
30.04" Hg
Pressure
1017.32 hPa
Previous

2 hours ago

CYXC 261700Z 07003KT 360V140 25SM BKN085 BKN220 13/02 A3005 RMK AC6CI1 SLP181 DENSITY ALT 3400FT
Observed
May-26 @ 17:00 UTC
Wind
  • 070° at 3 KTS
Visibility
25 SM
Flight Rules
VFR
Cloud Levels
  • Broken at 8,500' AGL
  • Broken at 22,000' AGL
Temperature
13°C / 55°F
Dewpoint
C / 36°F
Humidity
47%
Altimeter
30.05" Hg
Pressure
1017.62 hPa
Previous

3 hours ago

CYXC 261600Z 03006KT 330V080 25SM FEW070 SCT100 BKN200 12/01 A3004 RMK CU1AC4CI2 CU TR SLP180 DENSITY ALT 3300FT
Observed
May-26 @ 16:00 UTC
Wind
  • 030° at 6 KTS
Visibility
25 SM
Flight Rules
VFR
Cloud Levels
  • Few at 7,000' AGL
  • Scattered at 10,000' AGL
  • Broken at 20,000' AGL
Temperature
12°C / 54°F
Dewpoint
C / 34°F
Humidity
47%
Altimeter
30.04" Hg
Pressure
1017.32 hPa